Time;durP1;ratioP1;P1;durP2;ratioP2;P2;SDS_P1;SDS_P2;PMS_P1;PMS_P2;Temp;Humidity;BMP_temperature;BMP_pressure;BME280_temperature;BME280_humidity;BME280_pressure;Samples;Min_cycle;Max_cycle;Signal;HPM_P1;HPM_P2
2021/03/12 00:00:34;;;;;;;0.80;0.68;;;5.80;99.80;;;;;;6157898;23;20279;-82
2021/03/12 00:03:01;;;;;;;1.38;0.80;;;5.70;99.80;;;;;;6168118;23;20201;-82
2021/03/12 00:05:29;;;;;;;3.83;0.80;;;5.60;99.80;;;;;;6175676;23;20682;-83
2021/03/12 00:07:57;;;;;;;0.80;0.60;;;5.60;99.80;;;;;;6180662;23;20299;-82
2021/03/12 00:10:26;;;;;;;0.70;0.60;;;5.50;99.80;;;;;;6177413;23;20720;-82
2021/03/12 00:12:53;;;;;;;0.85;0.70;;;5.40;99.80;;;;;;6162168;23;20208;-82
2021/03/12 00:15:22;;;;;;;1.10;0.70;;;5.40;99.80;;;;;;6158810;23;20232;-83
2021/03/12 00:17:50;;;;;;;0.70;0.60;;;5.30;99.80;;;;;;6180424;23;20211;-82
2021/03/12 00:20:21;;;;;;;0.70;0.60;;;5.20;99.80;;;;;;6198003;23;20204;-83
2021/03/12 00:22:48;;;;;;;0.70;0.60;;;5.20;99.80;;;;;;6187906;23;20227;-81
2021/03/12 00:25:20;;;;;;;0.82;0.70;;;5.20;99.80;;;;;;6191375;23;20203;-82
2021/03/12 00:27:47;;;;;;;0.93;0.60;;;5.30;99.80;;;;;;6194041;23;20784;-82
2021/03/12 00:30:15;;;;;;;0.73;0.70;;;5.40;99.80;;;;;;6187925;23;20223;-82
2021/03/12 00:32:42;;;;;;;1.90;0.70;;;5.40;99.80;;;;;;6192665;23;20276;-82
2021/03/12 00:35:10;;;;;;;0.80;0.65;;;5.50;99.80;;;;;;6205145;23;20745;-82
2021/03/12 00:37:37;;;;;;;0.70;0.60;;;5.50;99.80;;;;;;6209061;23;20765;-82
2021/03/12 00:40:10;;;;;;;0.90;0.70;;;5.60;99.80;;;;;;6207424;23;20755;-80
2021/03/12 00:42:38;;;;;;;0.80;0.70;;;5.60;99.80;;;;;;6194465;23;20209;-82
2021/03/12 00:45:07;;;;;;;1.90;0.60;;;5.60;99.80;;;;;;6180846;23;20211;-82
2021/03/12 00:47:34;;;;;;;8.93;0.93;;;5.60;99.80;;;;;;6197612;23;20285;-82
2021/03/12 00:50:01;;;;;;;1.02;0.68;;;5.60;99.80;;;;;;6209512;23;20208;-84
2021/03/12 00:52:28;;;;;;;1.92;1.00;;;5.50;99.80;;;;;;6195059;23;20207;-83
2021/03/12 00:54:59;;;;;;;1.58;0.68;;;5.60;99.80;;;;;;6175765;23;20708;-81
2021/03/12 00:57:26;;;;;;;2.05;0.70;;;5.50;99.80;;;;;;6187788;23;20200;-81
2021/03/12 00:59:54;;;;;;;0.93;0.70;;;5.40;99.80;;;;;;6185128;23;20201;-82
2021/03/12 01:02:21;;;;;;;0.80;0.80;;;5.30;99.80;;;;;;6167659;23;20197;-82
2021/03/12 01:04:48;;;;;;;1.30;0.77;;;5.40;99.80;;;;;;6208035;23;20201;-82
2021/03/12 01:07:16;;;;;;;8.55;0.88;;;5.30;99.80;;;;;;6210366;23;20203;-82
2021/03/12 01:09:43;;;;;;;2.45;0.80;;;5.20;99.80;;;;;;6207785;23;20219;-82
2021/03/12 01:12:25;;;;;;;1.45;0.70;;;5.20;99.80;;;;;;6210018;23;20244;-82
2021/03/12 01:14:53;;;;;;;0.98;0.70;;;5.20;99.80;;;;;;6182447;23;20260;-81
2021/03/12 01:17:20;;;;;;;0.80;0.70;;;5.20;99.80;;;;;;6195874;23;20204;-82
2021/03/12 01:19:47;;;;;;;1.02;0.93;;;5.20;99.80;;;;;;6167701;23;21165;-81
2021/03/12 01:22:14;;;;;;;0.80;0.60;;;5.30;99.80;;;;;;6203872;23;20204;-82
2021/03/12 01:24:41;;;;;;;1.20;0.65;;;5.20;99.80;;;;;;6193955;23;20259;-82
2021/03/12 01:27:09;;;;;;;3.75;0.90;;;5.20;99.80;;;;;;6181921;23;20988;-81
2021/03/12 01:29:36;;;;;;;0.88;0.70;;;5.20;99.80;;;;;;6197549;23;20211;-82
2021/03/12 01:32:05;;;;;;;0.80;0.80;;;5.10;99.80;;;;;;6199502;23;20555;-81
2021/03/12 01:34:33;;;;;;;1.73;1.00;;;5.00;99.80;;;;;;6197856;23;20208;-82
2021/03/12 01:37:01;;;;;;;0.93;0.70;;;5.00;99.80;;;;;;6177721;23;20236;-81
2021/03/12 01:39:28;;;;;;;1.00;0.80;;;5.00;99.80;;;;;;6193784;23;20269;-82
2021/03/12 01:41:55;;;;;;;2.05;0.90;;;5.00;99.80;;;;;;6201164;23;20808;-81
2021/03/12 01:44:22;;;;;;;1.83;1.33;;;5.00;99.80;;;;;;6181119;23;20210;-81
2021/03/12 01:46:49;;;;;;;1.17;0.82;;;4.90;99.80;;;;;;6175449;23;20232;-81
2021/03/12 01:49:17;;;;;;;2.03;1.00;;;4.90;99.80;;;;;;6192307;23;20209;-82
2021/03/12 01:51:44;;;;;;;1.50;0.98;;;4.90;99.80;;;;;;6203976;23;20741;-82
2021/03/12 01:54:12;;;;;;;1.25;0.80;;;4.90;99.80;;;;;;6207048;23;20280;-81
2021/03/12 01:56:39;;;;;;;1.17;0.85;;;4.90;99.80;;;;;;6198239;23;20228;-82
2021/03/12 01:59:06;;;;;;;1.33;1.00;;;4.90;99.80;;;;;;6174337;23;20206;-81
2021/03/12 02:01:33;;;;;;;2.80;1.10;;;5.00;99.80;;;;;;6176779;23;20291;-81
2021/03/12 02:04:00;;;;;;;3.28;1.48;;;5.00;99.80;;;;;;6196411;23;20208;-82
2021/03/12 02:06:28;;;;;;;1.92;1.08;;;5.10;99.80;;;;;;6195171;23;20199;-81
2021/03/12 02:08:55;;;;;;;3.42;1.20;;;5.10;99.80;;;;;;6189155;23;20912;-81
2021/03/12 02:11:23;;;;;;;1.20;1.05;;;5.10;99.80;;;;;;6200185;23;20204;-81
2021/03/12 02:13:59;;;;;;;5.65;1.20;;;5.10;99.80;;;;;;6189978;23;20556;-82
2021/03/12 02:16:29;;;;;;;2.78;1.40;;;5.10;99.80;;;;;;6198228;23;20258;-82
2021/03/12 02:19:07;;;;;;;3.20;1.70;;;5.10;99.80;;;;;;6196206;23;20220;-82
2021/03/12 02:21:38;;;;;;;1.42;1.30;;;5.20;99.80;;;;;;6208734;23;20210;-81
2021/03/12 02:24:16;;;;;;;2.58;1.10;;;5.50;99.80;;;;;;6206924;23;20213;-82
2021/03/12 02:27:02;;;;;;;1.50;1.00;;;5.50;99.80;;;;;;6195552;23;20210;-82
2021/03/12 02:29:31;;;;;;;2.90;1.35;;;5.50;99.80;;;;;;6183806;23;20283;-81
2021/03/12 02:32:00;;;;;;;1.27;1.02;;;5.40;99.80;;;;;;6191976;23;20710;-82
2021/03/12 02:34:34;;;;;;;1.10;0.98;;;5.40;99.80;;;;;;6194768;23;20256;-81
2021/03/12 02:37:03;;;;;;;1.20;0.90;;;5.30;99.80;;;;;;6199324;23;20215;-82
2021/03/12 02:39:32;;;;;;;3.20;0.80;;;5.30;99.80;;;;;;6193470;23;20204;-82
2021/03/12 02:42:02;;;;;;;3.42;1.08;;;5.30;99.80;;;;;;6165951;23;20212;-82
2021/03/12 02:44:32;;;;;;;5.38;1.67;;;5.20;99.80;;;;;;6182136;23;20268;-82
2021/03/12 02:47:03;;;;;;;3.65;0.90;;;5.20;99.80;;;;;;6180818;23;20267;-81
2021/03/12 02:49:32;;;;;;;2.88;1.88;;;5.20;99.80;;;;;;6184649;23;20200;-83
2021/03/12 02:52:00;;;;;;;2.25;0.90;;;5.20;99.80;;;;;;6210588;23;20732;-82
2021/03/12 02:54:27;;;;;;;2.58;1.40;;;5.20;99.80;;;;;;6212269;23;20283;-82
2021/03/12 02:56:54;;;;;;;1.13;1.02;;;5.20;99.80;;;;;;6209727;23;20307;-83
2021/03/12 02:59:23;;;;;;;0.80;0.73;;;5.20;99.80;;;;;;6195335;23;20308;-82
2021/03/12 03:01:52;;;;;;;12.23;1.67;;;5.20;99.80;;;;;;6184078;23;20760;-82
2021/03/12 03:04:21;;;;;;;7.32;1.00;;;5.10;99.80;;;;;;6215756;23;20183;-81
2021/03/12 03:06:49;;;;;;;4.28;0.80;;;5.10;99.80;;;;;;6217756;23;20182;-82
2021/03/12 03:09:18;;;;;;;2.65;0.80;;;5.10;99.80;;;;;;6217337;23;20209;-81
2021/03/12 03:11:46;;;;;;;1.25;0.85;;;5.10;99.80;;;;;;6216980;23;20260;-82
2021/03/12 03:14:15;;;;;;;3.42;1.00;;;5.10;99.80;;;;;;6164052;23;20212;-81
2021/03/12 03:16:45;;;;;;;1.90;0.80;;;5.10;99.80;;;;;;6188102;23;20204;-82
2021/03/12 03:19:15;;;;;;;3.53;1.42;;;5.10;99.80;;;;;;6209703;22;20211;-82
2021/03/12 03:21:43;;;;;;;3.17;0.88;;;5.10;99.80;;;;;;6206334;22;20540;-82
2021/03/12 03:24:11;;;;;;;2.17;1.00;;;5.10;99.80;;;;;;6211263;23;20214;-82
2021/03/12 03:26:38;;;;;;;1.77;1.00;;;5.10;99.80;;;;;;6197312;23;20234;-83
2021/03/12 03:29:05;;;;;;;2.53;1.10;;;5.10;99.80;;;;;;6193167;23;20207;-81
2021/03/12 03:31:32;;;;;;;2.17;1.00;;;5.10;99.80;;;;;;6216492;22;20267;-82
2021/03/12 03:34:01;;;;;;;3.03;1.27;;;5.20;99.80;;;;;;6222862;23;20216;-81
2021/03/12 03:36:28;;;;;;;4.20;1.20;;;5.10;99.80;;;;;;6196008;23;20283;-82
2021/03/12 03:38:55;;;;;;;8.13;1.30;;;5.20;99.80;;;;;;6204225;22;20271;-82
2021/03/12 03:41:22;;;;;;;1.70;1.20;;;5.20;99.80;;;;;;6202052;23;20206;-82
2021/03/12 03:43:51;;;;;;;1.23;1.10;;;5.20;99.80;;;;;;6182773;23;20210;-83
2021/03/12 03:46:19;;;;;;;8.02;0.82;;;5.00;99.80;;;;;;6196241;23;20204;-82
2021/03/12 03:48:47;;;;;;;4.40;1.50;;;5.00;99.80;;;;;;6219766;23;20250;-82
2021/03/12 03:51:17;;;;;;;2.95;0.80;;;5.00;99.80;;;;;;6208609;23;20287;-82
2021/03/12 03:53:45;;;;;;;11.32;1.08;;;5.00;99.80;;;;;;6209388;23;20298;-82
2021/03/12 03:56:16;;;;;;;3.15;1.15;;;5.00;99.80;;;;;;6206521;23;20236;-82
2021/03/12 03:58:45;;;;;;;2.38;0.90;;;5.00;99.80;;;;;;6194602;23;20210;-82
2021/03/12 04:01:13;;;;;;;1.00;0.80;;;5.00;99.80;;;;;;6207508;23;20203;-82
2021/03/12 04:03:42;;;;;;;7.50;1.13;;;5.00;99.80;;;;;;6218391;23;20199;-82
2021/03/12 04:06:10;;;;;;;3.20;1.20;;;5.00;99.80;;;;;;6217603;22;20515;-82
2021/03/12 04:08:39;;;;;;;4.15;1.17;;;4.90;99.80;;;;;;6195887;23;20267;-82
2021/03/12 04:11:07;;;;;;;9.13;1.20;;;4.90;99.80;;;;;;6190592;23;20210;-82
2021/03/12 04:13:34;;;;;;;2.45;0.90;;;4.90;99.80;;;;;;6191243;23;20223;-82
2021/03/12 04:16:01;;;;;;;1.77;0.98;;;5.00;99.80;;;;;;6212614;23;20630;-81
2021/03/12 04:18:29;;;;;;;3.88;1.10;;;5.00;99.80;;;;;;6192668;23;20208;-82
2021/03/12 04:20:58;;;;;;;4.32;0.77;;;5.00;99.80;;;;;;6209448;23;20661;-82
2021/03/12 04:23:25;;;;;;;1.90;1.00;;;5.00;99.80;;;;;;6208407;23;20310;-82
2021/03/12 04:25:54;;;;;;;1.35;0.85;;;5.00;99.80;;;;;;6205724;23;20723;-84
2021/03/12 04:28:21;;;;;;;3.35;0.90;;;5.00;99.80;;;;;;6204912;23;20287;-82
2021/03/12 04:30:52;;;;;;;2.75;1.00;;;5.00;99.80;;;;;;6192916;23;20223;-81
2021/03/12 04:33:19;;;;;;;2.05;0.98;;;4.90;99.80;;;;;;6205953;23;20290;-83
2021/03/12 04:35:47;;;;;;;2.50;0.98;;;4.90;99.80;;;;;;6206834;23;20202;-81
2021/03/12 04:38:14;;;;;;;7.15;1.00;;;4.90;99.80;;;;;;6198132;23;20207;-81
2021/03/12 04:40:41;;;;;;;3.13;1.05;;;5.00;99.80;;;;;;6219946;23;20212;-82
2021/03/12 04:43:10;;;;;;;4.50;1.50;;;5.00;99.80;;;;;;6193408;23;20205;-82
2021/03/12 04:45:39;;;;;;;2.05;1.05;;;5.00;99.80;;;;;;6197360;23;20208;-82
2021/03/12 04:48:07;;;;;;;4.32;1.45;;;5.00;99.80;;;;;;6220655;22;20231;-82
2021/03/12 04:50:35;;;;;;;5.82;1.20;;;5.00;99.80;;;;;;6190466;23;20315;-82
2021/03/12 04:53:02;;;;;;;2.78;1.23;;;4.90;99.80;;;;;;6198308;23;20207;-82
2021/03/12 04:55:29;;;;;;;3.35;1.10;;;4.90;99.80;;;;;;6189637;23;20258;-81
2021/03/12 04:57:57;;;;;;;6.82;1.25;;;5.00;99.80;;;;;;6155412;23;20208;-82
2021/03/12 05:00:25;;;;;;;3.70;1.05;;;5.00;99.80;;;;;;6157506;23;20206;-82
2021/03/12 05:02:54;;;;;;;2.25;1.27;;;5.00;99.80;;;;;;6182932;23;20278;-82
2021/03/12 05:05:24;;;;;;;2.30;1.00;;;5.10;99.80;;;;;;6181814;23;20235;-83
2021/03/12 05:07:52;;;;;;;4.65;1.58;;;5.00;99.80;;;;;;6171092;23;20274;-84
2021/03/12 05:10:19;;;;;;;2.17;1.00;;;5.10;99.80;;;;;;6166894;23;20228;-83
2021/03/12 05:12:46;;;;;;;4.10;1.52;;;5.00;99.80;;;;;;6166526;23;20208;-82
2021/03/12 05:15:26;;;;;;;1.38;1.20;;;5.10;99.80;;;;;;6198489;23;20261;-82
2021/03/12 05:17:53;;;;;;;3.15;1.33;;;5.10;99.80;;;;;;6171080;23;20286;-82
2021/03/12 05:20:20;;;;;;;2.20;1.10;;;5.10;99.80;;;;;;6210739;22;20207;-81
2021/03/12 05:22:47;;;;;;;9.82;1.10;;;5.20;99.80;;;;;;6210686;23;20204;-82
2021/03/12 05:25:14;;;;;;;5.90;1.88;;;5.30;99.80;;;;;;6212142;23;20210;-82
2021/03/12 05:27:41;;;;;;;3.78;1.42;;;5.30;99.80;;;;;;6212232;23;20204;-82
2021/03/12 05:30:10;;;;;;;4.30;1.70;;;5.20;99.80;;;;;;6213299;23;20213;-81
2021/03/12 05:32:37;;;;;;;2.53;1.20;;;5.20;99.80;;;;;;6211934;23;20193;-81
2021/03/12 05:35:06;;;;;;;7.22;1.58;;;5.10;99.80;;;;;;6181672;23;20518;-82
2021/03/12 05:37:33;;;;;;;3.28;0.90;;;5.10;99.80;;;;;;6181710;23;20212;-81
2021/03/12 05:40:04;;;;;;;4.07;1.75;;;5.10;99.80;;;;;;6180452;23;20279;-81
2021/03/12 05:42:32;;;;;;;6.32;1.58;;;5.20;99.80;;;;;;6179757;23;20257;-81
2021/03/12 05:45:00;;;;;;;2.60;1.63;;;5.10;99.80;;;;;;6180024;23;20234;-81
2021/03/12 05:47:28;;;;;;;3.92;1.30;;;5.20;99.80;;;;;;6180340;23;20212;-81
2021/03/12 05:49:58;;;;;;;1.70;1.30;;;5.20;99.80;;;;;;6180803;23;20229;-81
2021/03/12 05:52:26;;;;;;;4.50;1.60;;;5.20;99.80;;;;;;6181101;23;20209;-82
2021/03/12 05:54:54;;;;;;;5.43;1.40;;;5.20;99.80;;;;;;6180871;23;20287;-82
2021/03/12 05:57:22;;;;;;;5.43;1.58;;;5.10;99.80;;;;;;6180618;23;20229;-82
2021/03/12 05:59:49;;;;;;;1.55;1.40;;;5.10;99.80;;;;;;6181132;23;20289;-82
2021/03/12 06:02:16;;;;;;;3.00;1.42;;;5.10;99.80;;;;;;6181130;23;20209;-82
2021/03/12 06:04:45;;;;;;;4.90;1.45;;;5.00;99.80;;;;;;6182850;23;20204;-82
2021/03/12 06:07:13;;;;;;;4.90;1.52;;;5.10;99.80;;;;;;6183471;23;20207;-81
2021/03/12 06:09:41;;;;;;;6.65;1.92;;;5.10;99.80;;;;;;6183538;23;20288;-82
2021/03/12 06:12:10;;;;;;;6.25;1.38;;;5.20;99.80;;;;;;6183080;23;20204;-83
2021/03/12 06:14:51;;;;;;;3.10;1.60;;;5.20;99.80;;;;;;6182673;23;20221;-83
2021/03/12 06:17:37;;;;;;;4.90;1.65;;;5.20;99.80;;;;;;6212919;23;20231;-81
2021/03/12 06:20:07;;;;;;;1.75;1.50;;;5.20;99.80;;;;;;6213182;23;20208;-83
2021/03/12 06:22:35;;;;;;;2.92;1.35;;;5.20;99.80;;;;;;6213525;23;20208;-83
2021/03/12 06:25:14;;;;;;;7.30;2.00;;;5.20;99.80;;;;;;6212874;23;20708;-82
2021/03/12 06:27:41;;;;;;;3.55;1.70;;;5.20;99.80;;;;;;6212396;23;20211;-81
2021/03/12 06:30:10;;;;;;;2.55;1.50;;;5.20;99.80;;;;;;6183502;23;20201;-82
2021/03/12 06:32:43;;;;;;;2.35;1.30;;;5.20;99.80;;;;;;6213210;23;20215;-83
2021/03/12 06:35:13;;;;;;;1.83;1.73;;;5.20;99.80;;;;;;6212312;23;20232;-84
2021/03/12 06:37:42;;;;;;;3.10;1.98;;;5.30;99.80;;;;;;6182456;23;20555;-84
2021/03/12 06:40:18;;;;;;;4.90;2.00;;;5.40;99.80;;;;;;6197559;23;20216;-82
2021/03/12 06:43:02;;;;;;;2.55;1.50;;;5.60;99.80;;;;;;6177242;23;20378;-83
2021/03/12 06:45:31;;;;;;;5.28;1.60;;;5.70;99.80;;;;;;6204573;23;20211;-83
2021/03/12 06:48:14;;;;;;;3.45;1.42;;;5.80;99.80;;;;;;6189066;23;20881;-86
2021/03/12 06:50:46;;;;;;;12.27;2.30;;;5.90;99.80;;;;;;6186158;23;20222;-86
2021/03/12 06:53:25;;;;;;;6.35;1.80;;;6.00;99.80;;;;;;6161159;23;20216;-86
2021/03/12 06:55:53;;;;;;;7.38;2.13;;;6.00;99.80;;;;;;6145347;23;20219;-86
2021/03/12 06:58:21;;;;;;;5.20;2.00;;;6.10;99.80;;;;;;6172358;23;20273;-86
2021/03/12 07:00:48;;;;;;;2.28;1.33;;;6.10;99.80;;;;;;6159834;23;20227;-86
2021/03/12 07:03:34;;;;;;;6.28;2.15;;;6.10;99.80;;;;;;6176610;23;20197;-86
2021/03/12 07:06:06;;;;;;;5.50;1.83;;;6.20;99.80;;;;;;6202114;23;20206;-86
2021/03/12 07:08:37;;;;;;;5.68;2.30;;;6.20;99.80;;;;;;6206035;23;20461;-85
2021/03/12 07:11:20;;;;;;;11.73;2.30;;;6.20;99.80;;;;;;6162932;23;20203;-87
2021/03/12 07:13:49;;;;;;;3.83;1.92;;;6.10;99.80;;;;;;6186594;23;20206;-86
2021/03/12 07:16:16;;;;;;;5.00;1.65;;;6.00;99.80;;;;;;6167352;23;20220;-85
2021/03/12 07:18:44;;;;;;;5.88;1.90;;;6.00;99.80;;;;;;6193092;23;20257;-86
2021/03/12 07:21:13;;;;;;;5.80;2.10;;;6.00;99.80;;;;;;6188445;23;20235;-86
2021/03/12 07:23:43;;;;;;;2.70;1.55;;;6.10;99.80;;;;;;6164481;23;20193;-86
2021/03/12 07:26:12;;;;;;;10.27;2.05;;;6.40;99.80;;;;;;6189625;23;20208;-85
2021/03/12 07:28:41;;;;;;;7.63;1.50;;;6.40;99.80;;;;;;6182838;23;20299;-85
2021/03/12 07:31:10;;;;;;;5.15;1.52;;;6.50;99.80;;;;;;6199958;23;20698;-86
2021/03/12 07:33:41;;;;;;;4.82;1.33;;;6.50;99.80;;;;;;6200793;23;20552;-86
2021/03/12 07:36:10;;;;;;;3.20;1.88;;;6.60;99.80;;;;;;6202836;23;20689;-86
2021/03/12 07:38:39;;;;;;;2.35;1.52;;;6.70;99.80;;;;;;6204773;23;20209;-85
2021/03/12 07:41:08;;;;;;;5.72;2.58;;;6.70;99.80;;;;;;6199725;23;20197;-86
2021/03/12 07:43:37;;;;;;;3.42;1.65;;;6.80;99.80;;;;;;6179641;23;20227;-86
2021/03/12 07:46:06;;;;;;;4.97;1.60;;;6.80;99.80;;;;;;6194333;23;20208;-86
2021/03/12 07:48:35;;;;;;;4.80;1.60;;;6.90;99.80;;;;;;6199192;23;20444;-85
2021/03/12 07:51:09;;;;;;;2.73;1.67;;;6.90;99.80;;;;;;6206335;23;20205;-84
2021/03/12 07:53:50;;;;;;;2.72;1.83;;;7.00;99.80;;;;;;6158360;23;20499;-86
2021/03/12 07:56:34;;;;;;;5.95;2.17;;;7.00;99.80;;;;;;6183978;23;20205;-87
2021/03/12 07:59:01;;;;;;;1.47;1.37;;;7.10;99.80;;;;;;6180974;23;20209;-86
2021/03/12 08:01:46;;;;;;;4.37;1.70;;;7.20;99.80;;;;;;6173791;23;20513;-86
2021/03/12 08:04:28;;;;;;;5.10;2.28;;;7.30;99.80;;;;;;6191715;23;21112;-87
2021/03/12 08:06:55;;;;;;;4.25;1.70;;;7.20;99.80;;;;;;6206178;23;20209;-86
2021/03/12 08:09:34;;;;;;;5.22;1.85;;;7.20;99.80;;;;;;6206756;23;20540;-86
2021/03/12 08:12:04;;;;;;;5.65;2.05;;;7.20;99.80;;;;;;6193226;23;20225;-86
2021/03/12 08:14:32;;;;;;;7.28;1.88;;;7.20;99.80;;;;;;6187694;23;20557;-86
2021/03/12 08:17:16;;;;;;;3.47;1.70;;;7.30;99.80;;;;;;6186827;23;20217;-86
2021/03/12 08:19:47;;;;;;;4.20;1.73;;;7.30;99.80;;;;;;6204111;23;20223;-86
2021/03/12 08:22:43;;;;;;;2.15;1.55;;;7.40;99.80;;;;;;6191509;23;20456;-86
2021/03/12 08:25:13;;;;;;;5.25;2.40;;;7.50;99.80;;;;;;6157190;23;20212;-86
2021/03/12 08:27:44;;;;;;;7.43;1.40;;;7.50;99.80;;;;;;6175271;23;20233;-86
2021/03/12 08:30:33;;;;;;;4.03;1.95;;;7.60;99.80;;;;;;6190371;23;20252;-86
2021/03/12 08:33:02;;;;;;;3.20;1.73;;;7.60;99.80;;;;;;6181244;23;20207;-86
2021/03/12 08:35:39;;;;;;;7.73;1.90;;;7.70;99.80;;;;;;6184854;23;20828;-86
2021/03/12 08:38:37;;;;;;;4.73;1.90;;;7.70;99.80;;;;;;6171673;23;20534;-86
2021/03/12 08:41:08;;;;;;;5.10;1.63;;;8.00;99.80;;;;;;6182041;23;20445;-87
2021/03/12 08:43:42;;;;;;;6.75;2.42;;;8.00;99.30;;;;;;6176643;23;20511;-87
2021/03/12 08:46:14;;;;;;;8.50;1.60;;;8.10;99.60;;;;;;6160184;23;20204;-86
2021/03/12 08:48:41;;;;;;;4.40;2.20;;;8.10;99.40;;;;;;6168780;23;20520;-86
2021/03/12 08:51:13;;;;;;;4.17;2.40;;;8.20;99.40;;;;;;6206159;23;20436;-86
2021/03/12 08:53:45;;;;;;;2.97;1.40;;;8.30;97.40;;;;;;6205538;23;20508;-86
2021/03/12 08:56:12;;;;;;;6.77;2.27;;;8.30;96.90;;;;;;6189004;23;20439;-86
2021/03/12 08:58:44;;;;;;;4.10;1.57;;;8.30;97.50;;;;;;6179189;23;24930;-85
2021/03/12 09:01:12;;;;;;;5.20;2.00;;;8.30;96.90;;;;;;6159364;23;20431;-85
2021/03/12 09:03:46;;;;;;;6.40;1.50;;;8.50;96.00;;;;;;6176098;23;20435;-85
2021/03/12 09:06:15;;;;;;;3.10;1.60;;;8.70;96.70;;;;;;6181019;23;20427;-88
2021/03/12 09:08:54;;;;;;;3.63;1.63;;;8.70;94.90;;;;;;6193117;23;20494;-86
2021/03/12 09:11:23;;;;;;;4.40;2.37;;;9.00;95.40;;;;;;6187127;23;20514;-87
2021/03/12 09:13:53;;;;;;;3.87;2.07;;;9.30;94.30;;;;;;6168144;23;20471;-86
2021/03/12 09:16:22;;;;;;;2.73;1.30;;;9.30;93.00;;;;;;6180363;23;20463;-85
2021/03/12 09:18:51;;;;;;;3.37;1.70;;;9.20;93.60;;;;;;6191884;23;20447;-86
2021/03/12 09:21:20;;;;;;;5.63;1.77;;;9.40;94.30;;;;;;6204544;23;20512;-86
2021/03/12 09:23:49;;;;;;;1.57;1.47;;;9.60;93.30;;;;;;6204820;23;20501;-86
2021/03/12 09:26:18;;;;;;;6.33;1.87;;;9.80;93.90;;;;;;6182102;23;20427;-88
2021/03/12 09:28:46;;;;;;;4.37;2.20;;;9.80;92.60;;;;;;6186320;23;20507;-87
2021/03/12 09:31:16;;;;;;;6.40;1.60;;;9.80;91.90;;;;;;6190435;23;20487;-86
2021/03/12 09:33:45;;;;;;;2.77;1.30;;;9.90;91.70;;;;;;6190295;23;20905;-86
2021/03/12 09:36:28;;;;;;;3.20;1.63;;;9.90;91.50;;;;;;6177092;23;20506;-86
2021/03/12 09:38:57;;;;;;;5.63;2.00;;;9.90;91.70;;;;;;6163926;23;20507;-85
2021/03/12 09:41:26;;;;;;;4.87;1.63;;;9.80;91.30;;;;;;6191822;23;20999;-86
2021/03/12 09:44:07;;;;;;;2.73;1.83;;;9.70;91.70;;;;;;6178208;23;20420;-88
2021/03/12 09:46:37;;;;;;;7.03;2.33;;;9.70;91.20;;;;;;6183969;23;20459;-86
2021/03/12 09:49:21;;;;;;;4.17;2.17;;;9.70;92.10;;;;;;6198954;23;20432;-86
2021/03/12 09:51:52;;;;;;;3.30;2.27;;;9.80;90.70;;;;;;6204350;23;20439;-86
2021/03/12 09:54:20;;;;;;;4.67;2.40;;;10.00;91.20;;;;;;6207745;23;20440;-86
2021/03/12 09:56:49;;;;;;;3.20;1.93;;;10.20;89.80;;;;;;6189968;23;20516;-87
2021/03/12 09:59:19;;;;;;;4.33;1.83;;;10.50;89.30;;;;;;6189231;23;20512;-86
2021/03/12 10:01:48;;;;;;;4.70;2.67;;;10.70;89.20;;;;;;6123755;23;20489;-86
2021/03/12 10:04:23;;;;;;;4.10;1.63;;;10.90;88.70;;;;;;6187164;23;21190;-86
2021/03/12 10:06:59;;;;;;;3.00;1.60;;;11.20;86.70;;;;;;6192000;23;20527;-86
2021/03/12 10:09:26;;;;;;;4.67;1.40;;;10.60;86.70;;;;;;6152591;23;20471;-86
2021/03/12 10:11:53;;;;;;;1.70;1.60;;;10.40;89.20;;;;;;6196638;23;20466;-87
2021/03/12 10:14:29;;;;;;;4.23;1.30;;;10.30;88.30;;;;;;6188125;23;20512;-86
2021/03/12 10:17:07;;;;;;;3.13;1.43;;;10.40;88.20;;;;;;6183920;23;20493;-86
2021/03/12 10:19:49;;;;;;;4.83;1.47;;;10.50;87.70;;;;;;6194923;23;20498;-87
2021/03/12 10:22:22;;;;;;;2.70;1.57;;;10.50;88.60;;;;;;6205981;23;20947;-86
2021/03/12 10:24:57;;;;;;;1.70;1.33;;;10.60;88.40;;;;;;6206416;23;20780;-86
2021/03/12 10:27:25;;;;;;;8.93;1.63;;;10.50;86.90;;;;;;6200709;23;20439;-86
2021/03/12 10:29:53;;;;;;;3.07;1.47;;;10.10;87.80;;;;;;6167371;23;20432;-86
2021/03/12 10:32:22;;;;;;;5.27;1.23;;;10.20;88.20;;;;;;6180210;23;20423;-85
2021/03/12 10:34:51;;;;;;;2.77;1.50;;;10.30;88.00;;;;;;6191283;23;20527;-86
2021/03/12 10:37:20;;;;;;;1.30;1.07;;;10.30;87.20;;;;;;6203476;23;21041;-86
2021/03/12 10:39:50;;;;;;;2.40;1.40;;;10.30;87.00;;;;;;6197361;23;20442;-85
2021/03/12 10:42:26;;;;;;;5.60;1.93;;;10.50;88.30;;;;;;6186137;23;20435;-86
2021/03/12 10:44:55;;;;;;;9.27;1.67;;;10.50;86.80;;;;;;6180605;23;20424;-86
2021/03/12 10:47:24;;;;;;;5.10;1.57;;;10.50;86.60;;;;;;6175055;23;20587;-86
2021/03/12 10:49:52;;;;;;;5.40;1.50;;;10.80;87.80;;;;;;6187660;23;20483;-87
2021/03/12 10:52:25;;;;;;;6.77;1.73;;;11.00;86.20;;;;;;6186795;23;20436;-87
2021/03/12 10:54:52;;;;;;;8.30;1.50;;;11.10;86.60;;;;;;6193901;23;20451;-86
2021/03/12 10:57:45;;;;;;;8.03;1.23;;;11.30;85.00;;;;;;6187362;23;20445;-86
2021/03/12 11:00:19;;;;;;;3.73;1.17;;;11.10;85.70;;;;;;6177433;23;20436;-85
2021/03/12 11:02:48;;;;;;;4.93;1.73;;;10.90;84.40;;;;;;6186208;23;20431;-88
2021/03/12 11:05:17;;;;;;;6.13;1.53;;;10.90;85.40;;;;;;6200771;23;20495;-86
2021/03/12 11:07:45;;;;;;;8.00;2.60;;;11.30;84.20;;;;;;6203864;23;20502;-86
2021/03/12 11:10:15;;;;;;;13.50;2.07;;;11.60;84.30;;;;;;6203142;23;20439;-86
2021/03/12 11:12:44;;;;;;;8.63;2.07;;;12.10;83.90;;;;;;6189677;23;20797;-86
2021/03/12 11:15:14;;;;;;;4.20;1.47;;;12.50;81.30;;;;;;6194346;23;20447;-86
2021/03/12 11:17:45;;;;;;;6.30;1.90;;;12.50;81.00;;;;;;6168792;23;20486;-86
2021/03/12 11:20:16;;;;;;;1.70;1.50;;;12.20;81.20;;;;;;6191168;23;20436;-86
2021/03/12 11:22:44;;;;;;;6.00;1.60;;;12.20;81.90;;;;;;6176419;23;20440;-87
2021/03/12 11:25:12;;;;;;;18.70;1.50;;;12.00;81.30;;;;;;6158894;23;20469;-87
2021/03/12 11:27:39;;;;;;;4.40;1.47;;;11.80;80.50;;;;;;6191399;23;20437;-86
2021/03/12 11:30:09;;;;;;;2.50;1.10;;;11.30;81.50;;;;;;6175673;23;20512;-86
2021/03/12 11:32:37;;;;;;;4.93;1.40;;;10.90;81.40;;;;;;6183431;23;20479;-89
2021/03/12 11:35:06;;;;;;;1.90;1.70;;;10.90;82.20;;;;;;6205514;23;20511;-87
2021/03/12 11:37:33;;;;;;;5.60;1.57;;;11.50;81.40;;;;;;6204742;23;20437;-87
2021/03/12 11:40:01;;;;;;;4.13;1.33;;;12.80;78.20;;;;;;6207099;23;21011;-87
2021/03/12 11:42:28;;;;;;;2.70;1.00;;;13.30;75.50;;;;;;6197308;23;20861;-87
2021/03/12 11:44:55;;;;;;;8.00;1.90;;;13.60;74.80;;;;;;6171106;23;20544;-84
2021/03/12 11:47:22;;;;;;;2.03;1.30;;;14.00;73.30;;;;;;6182324;23;20954;-86
2021/03/12 11:49:49;;;;;;;4.30;1.33;;;14.20;72.90;;;;;;6202698;23;20443;-86
2021/03/12 11:52:17;;;;;;;4.27;1.57;;;14.10;72.20;;;;;;6179493;23;20512;-86
2021/03/12 11:54:45;;;;;;;3.17;1.43;;;14.20;72.20;;;;;;6182863;23;20465;-86
2021/03/12 11:57:12;;;;;;;1.50;1.00;;;13.50;71.50;;;;;;6181951;23;21012;-86
2021/03/12 11:59:40;;;;;;;6.00;1.00;;;13.70;72.90;;;;;;6155376;23;20467;-85
2021/03/12 12:02:07;;;;;;;3.03;1.10;;;14.70;71.70;;;;;;6175480;23;20512;-85
2021/03/12 12:04:34;;;;;;;6.73;1.53;;;14.80;71.70;;;;;;6191696;23;20460;-85
2021/03/12 12:07:01;;;;;;;2.17;1.10;;;14.50;72.30;;;;;;6201523;23;20822;-86
2021/03/12 12:09:28;;;;;;;3.57;0.90;;;14.10;72.00;;;;;;6205799;23;20434;-85
2021/03/12 12:11:56;;;;;;;1.87;1.50;;;14.20;72.50;;;;;;6202767;23;20529;-86
2021/03/12 12:14:23;;;;;;;6.63;1.83;;;15.30;69.60;;;;;;6176038;23;20439;-86
2021/03/12 12:16:50;;;;;;;1.33;0.90;;;16.10;68.60;;;;;;6179854;23;20445;-83
2021/03/12 12:19:19;;;;;;;9.73;1.63;;;16.70;68.10;;;;;;6155960;23;20484;-84
2021/03/12 12:21:46;;;;;;;5.20;1.47;;;16.90;64.70;;;;;;6206927;23;20538;-83
2021/03/12 12:24:13;;;;;;;6.67;1.67;;;14.60;69.90;;;;;;6182238;23;20450;-84
2021/03/12 12:26:40;;;;;;;4.57;1.30;;;12.90;74.10;;;;;;6178439;23;20434;-84
2021/03/12 12:29:11;;;;;;;5.80;1.67;;;12.00;76.30;;;;;;6176594;23;20436;-87
2021/03/12 12:31:38;;;;;;;3.80;1.00;;;11.30;78.30;;;;;;6182841;23;20437;-86
2021/03/12 12:34:07;;;;;;;5.73;1.63;;;10.90;79.90;;;;;;6187547;23;20428;-85
2021/03/12 12:36:34;;;;;;;4.53;1.37;;;;;;;;;;6176887;23;20525;-88
2021/03/12 12:39:07;;;;;;;2.47;1.57;;;10.50;83.30;;;;;;6190628;23;21004;-86
2021/03/12 12:41:37;;;;;;;6.13;1.60;;;10.60;85.40;;;;;;6176503;23;20496;-85
2021/03/12 12:44:04;;;;;;;3.13;1.80;;;11.40;84.90;;;;;;6183952;23;20446;-86
2021/03/12 12:46:32;;;;;;;5.20;1.50;;;11.60;84.40;;;;;;6187462;23;20821;-85
2021/03/12 12:49:00;;;;;;;4.43;1.70;;;11.40;83.10;;;;;;6196103;23;20448;-86
2021/03/12 12:51:27;;;;;;;8.83;1.60;;;11.50;82.30;;;;;;6205841;23;20440;-86
2021/03/12 12:53:54;;;;;;;2.93;1.00;;;14.80;75.30;;;;;;6206230;23;20844;-85
2021/03/12 12:56:22;;;;;;;7.40;1.20;;;18.20;67.70;;;;;;6164340;23;20468;-86
2021/03/12 12:58:49;;;;;;;2.20;1.47;;;19.60;62.60;;;;;;6180464;23;20475;-86
2021/03/12 13:01:16;;;;;;;1.77;0.90;;;17.90;64.00;;;;;;6173913;23;20494;-86
2021/03/12 13:03:44;;;;;;;2.33;1.00;;;15.30;70.00;;;;;;6162845;23;20483;-85
2021/03/12 13:06:11;;;;;;;5.70;1.50;;;13.50;75.00;;;;;;6178836;23;20431;-86
2021/03/12 13:08:38;;;;;;;3.87;1.30;;;11.90;80.30;;;;;;6185513;23;20504;-86